Storoen, Sweden

12:49 AM CET on March 04, 2015 (GMT +0100)
INORRBOT5 | Change Station
CLOSE
Current Station
Personal Weather Station
Location: Karlsborg, NORRBOTTEN
Elevation: 56 ft
Nearby Weather Stations

Elev 56 ft 65.80 °N, 23.30 °E | Updated 20 seconds ago

Overcast
Overcast
34.9 °F
Feels Like 31 °F
N
4.5
Wind Variable Wind from ENE

Today
High -- | Low -- °F
--% Chance of Precip.
Yesterday
High -- | Low -- °F
Precip. -- in
6:30 AM 4:50 PM
Waxing Gibbous, 97% visible
Pressure 29.65 in
Visibility 6.2 miles
Clouds Mostly Cloudy 1100 ft
Overcast 5400 ft
Windchill 31 °F
Dew Point 35 °F
Humidity 100%
Rainfall -999.00 in
Snow Depth Not available.
UV 0 out of 12
Pollen Not available.
Air Quality Not available.
Flu Activity Not available.
METAR EFKE 032320Z AUTO 08004KT 050V110 9999 BKN011 OVC054 01/00 Q1004

More Conditions Fewer Conditions

Pressure 29.65 in
Visibility 6.2 miles
Clouds Mostly Cloudy 1100 ft
Overcast 5400 ft
Windchill 31 °F
Dew Point 35 °F
Humidity 100%
Rainfall -999.00 in
Snow Depth Not available.
UV 0 out of 12
Pollen Not available.
Air Quality Not available.
Flu Activity Not available.
METAR EFKE 032320Z AUTO 08004KT 050V110 9999 BKN011 OVC054 01/00 Q1004

More Conditions Fewer Conditions

10-Day Weather Forecast

Almanac

Astronomy

Mar. 04, 2015 Rise Set
Actual Time
Civil Twilight
Nautical Twilight
Astronomical Twilight
Moon
Length of Visible Light
Length of Day
Tomorrow will be .
, % of the Moon is Illuminated

Today's Extremes

Country Highs Country Lows

Community

WunderPhotos

Upload Photos

1,802,305 photos uploaded!

WunderBlogs® & News

Nearby

Air Quality

  Air Quality AQ Index Pollutant
Not available.

Snow Depth

Station Depth Elevation

Earthquake Activity

City Distance Mag. Time & Date
Minimum magnitude displayed is 2.5.

Coastal Water Temperatures

Place Temperature

Nearby Weather Stations